Time;durP1;ratioP1;P1;durP2;ratioP2;P2;SDS_P1;SDS_P2;PMS_P1;PMS_P2;Temp;Humidity;BMP_temperature;BMP_pressure;BME280_temperature;BME280_humidity;BME280_pressure;Samples;Min_cycle;Max_cycle;Signal;HPM_P1;HPM_P2
2021/05/26 00:01:56;;;;;;;;;8.00;5.50;;;;;11.86;70.35;101116.81;5082492;28;45215;-54
2021/05/26 00:04:21;;;;;;;;;13.00;4.75;;;;;11.84;70.53;101110.69;5098187;27;45202;-50
2021/05/26 00:06:47;;;;;;;;;8.00;6.50;;;;;11.78;70.55;101120.44;5082565;27;45223;-50
2021/05/26 00:09:12;;;;;;;;;6.25;4.25;;;;;11.77;70.45;101098.47;5082375;27;45168;-51
2021/05/26 00:11:38;;;;;;;;;4.25;3.00;;;;;11.73;70.93;101101.19;5082389;27;46474;-49
2021/05/26 00:14:03;;;;;;;;;8.00;6.00;;;;;11.74;70.63;101100.31;5098163;27;45209;-53
2021/05/26 00:16:30;;;;;;;;;5.75;5.00;;;;;11.74;70.41;101095.03;5082547;27;45480;-50
2021/05/26 00:18:55;;;;;;;;;8.50;7.00;;;;;11.74;70.70;101093.25;5082122;27;45448;-53
2021/05/26 00:21:23;;;;;;;;;6.00;6.00;;;;;11.69;71.29;101090.69;5081860;27;46110;-53
2021/05/26 00:23:48;;;;;;;;;8.50;7.25;;;;;11.63;73.45;101080.22;5081992;27;45261;-50
2021/05/26 00:26:13;;;;;;;;;7.00;4.75;;;;;11.50;72.46;101074.25;5082323;27;45235;-51
2021/05/26 00:28:42;;;;;;;;;5.75;4.25;;;;;11.39;72.70;101070.91;5082067;27;45310;-53
2021/05/26 00:31:09;;;;;;;;;7.25;5.50;;;;;11.44;72.80;101070.84;5081539;27;45318;-52
2021/05/26 00:33:34;;;;;;;;;4.75;4.00;;;;;11.44;72.74;101066.44;5081818;27;45337;-51
2021/05/26 00:36:00;;;;;;;;;8.00;5.75;;;;;11.38;74.23;101056.00;5082070;27;45320;-53
2021/05/26 00:38:25;;;;;;;;;5.00;5.00;;;;;11.31;74.69;101055.22;5081789;27;45326;-49
2021/05/26 00:40:51;;;;;;;;;5.50;5.00;;;;;11.35;73.40;101043.75;5081983;27;46267;-52
2021/05/26 00:43:17;;;;;;;;;5.75;4.25;;;;;11.30;73.91;101039.44;5080459;28;45330;-48
2021/05/26 00:45:43;;;;;;;;;7.00;5.00;;;;;11.29;74.43;101032.44;5082031;27;45323;-53
2021/05/26 00:48:08;;;;;;;;;8.00;6.25;;;;;11.28;76.70;101034.22;5080486;28;45320;-49
2021/05/26 00:50:36;;;;;;;;;6.00;5.00;;;;;11.25;76.50;101020.22;5081790;27;45911;-49
2021/05/26 00:53:10;;;;;;;;;6.25;6.25;;;;;11.15;79.86;101022.94;5081557;27;45282;-53
2021/05/26 00:55:37;;;;;;;;;8.50;6.00;;;;;11.10;79.71;101014.25;5081757;27;45291;-49
2021/05/26 00:58:04;;;;;;;;;4.25;3.50;;;;;11.14;79.38;101004.56;5081523;28;45225;-49
2021/05/26 01:00:31;;;;;;;;;4.00;4.00;;;;;11.12;83.42;101008.97;5097140;27;46559;-54
2021/05/26 01:02:56;;;;;;;;;5.50;5.00;;;;;11.02;84.83;101001.19;5081399;27;45410;-52
2021/05/26 01:05:24;;;;;;;;;6.00;5.00;;;;;10.99;84.00;101000.34;5081685;27;45322;-53
2021/05/26 01:07:51;;;;;;;;;8.25;5.50;;;;;11.00;84.62;101002.09;5081206;28;45243;-53
2021/05/26 01:10:18;;;;;;;;;6.50;4.00;;;;;11.01;83.97;100986.28;5081472;27;47012;-49
2021/05/26 01:12:44;;;;;;;;;4.50;3.00;;;;;11.00;82.91;100975.81;5081074;27;45401;-50
2021/05/26 01:15:12;;;;;;;;;5.75;4.75;;;;;11.00;82.58;100981.91;5080212;28;45275;-53
2021/05/26 01:17:38;;;;;;;;;10.50;6.75;;;;;10.96;81.09;100972.34;5081191;27;45496;-53
2021/05/26 01:20:07;;;;;;;;;9.25;7.00;;;;;10.94;78.06;100960.94;5081140;28;45428;-48
2021/05/26 01:22:33;;;;;;;;;6.25;6.25;;;;;10.99;77.62;100958.28;5096326;27;45294;-54
2021/05/26 01:24:59;;;;;;;;;7.50;5.75;;;;;11.04;77.31;100967.88;5081539;27;45297;-51
2021/05/26 01:27:24;;;;;;;;;6.00;4.00;;;;;11.04;76.88;100964.34;5080989;27;45508;-53
2021/05/26 01:29:51;;;;;;;;;7.50;4.00;;;;;11.04;77.24;100954.72;5081288;28;45386;-54
2021/05/26 01:32:17;;;;;;;;;8.25;5.50;;;;;11.04;77.58;100956.47;5080888;27;45280;-53
2021/05/26 01:34:42;;;;;;;;;7.25;5.00;;;;;10.95;78.11;100952.19;5096903;27;45350;-50
2021/05/26 01:37:08;;;;;;;;;7.50;4.00;;;;;10.89;77.88;100947.00;5080871;27;45346;-49
2021/05/26 01:39:34;;;;;;;;;5.75;5.75;;;;;10.91;79.63;100945.22;5081103;27;46378;-52
2021/05/26 01:41:59;;;;;;;;;12.75;6.75;;;;;10.86;78.66;100947.91;5079527;27;45337;-52
2021/05/26 01:44:26;;;;;;;;;7.50;6.00;;;;;10.89;77.78;100944.38;5081246;27;45278;-51
2021/05/26 01:46:51;;;;;;;;;6.00;6.00;;;;;10.89;77.42;100936.47;5080953;27;45402;-51
2021/05/26 01:49:17;;;;;;;;;7.75;7.00;;;;;10.89;77.48;100931.22;5096695;27;46962;-48
2021/05/26 01:51:43;;;;;;;;;5.25;5.25;;;;;10.86;77.61;100920.75;5080389;27;45243;-50
2021/05/26 01:54:08;;;;;;;;;5.25;4.25;;;;;10.78;78.86;100933.09;5085360;27;45426;-49
2021/05/26 01:56:34;;;;;;;;;6.75;4.25;;;;;10.82;77.87;100934.84;5075170;28;45362;-52
2021/05/26 01:59:00;;;;;;;;;8.25;6.75;;;;;10.78;78.63;100927.84;5073167;28;45710;-48
2021/05/26 02:01:27;;;;;;;;;7.75;7.75;;;;;10.83;78.12;100923.41;5080654;28;45360;-50
2021/05/26 02:03:53;;;;;;;;;11.00;8.00;;;;;10.81;78.45;100912.91;5080778;27;45319;-48
2021/05/26 02:06:20;;;;;;;;;3.00;3.00;;;;;10.86;77.69;100926.00;5080388;27;45237;-50
2021/05/26 02:08:49;;;;;;;;;6.25;5.75;;;;;10.91;78.07;100910.19;5080376;27;46883;-48
2021/05/26 02:14:04;;;;;;;;;4.75;4.75;;;;;10.90;80.26;100906.69;5080621;28;45398;-51
2021/05/26 02:16:30;;;;;;;;;6.00;5.00;;;;;10.83;82.54;100897.13;5080656;27;45223;-52
2021/05/26 02:18:55;;;;;;;;;7.00;7.00;;;;;10.84;83.90;100886.59;5080299;27;45237;-50
2021/05/26 02:21:21;;;;;;;;;7.50;6.25;;;;;10.82;83.88;100895.41;5095870;27;45358;-54
2021/05/26 02:23:46;;;;;;;;;6.25;5.50;;;;;10.86;83.44;100890.06;5080391;27;45514;-53
2021/05/26 02:26:12;;;;;;;;;11.00;8.50;;;;;10.85;84.46;100897.97;5062245;28;45255;-48
2021/05/26 02:28:38;;;;;;;;;8.25;6.25;;;;;10.91;82.94;100889.16;5080133;27;45476;-48
2021/05/26 02:31:03;;;;;;;;;7.00;5.00;;;;;10.93;79.62;100882.09;5080345;27;45335;-49
2021/05/26 02:33:29;;;;;;;;;8.50;6.75;;;;;10.97;79.20;100887.31;5080424;27;45316;-48
2021/05/26 02:35:54;;;;;;;;;8.25;8.00;;;;;10.98;79.66;100869.75;5080421;27;45330;-49
2021/05/26 02:38:20;;;;;;;;;6.50;5.50;;;;;10.98;79.64;100869.75;5095605;27;46989;-48
2021/05/26 02:40:45;;;;;;;;;8.50;5.00;;;;;11.01;78.83;100882.88;5080379;27;45314;-51
2021/05/26 02:43:11;;;;;;;;;8.50;6.50;;;;;11.00;81.50;100865.34;5095901;27;45547;-50
2021/05/26 02:45:36;;;;;;;;;4.00;3.75;;;;;10.99;82.23;100860.97;5080282;27;45240;-51
2021/05/26 02:48:03;;;;;;;;;8.75;6.25;;;;;11.01;82.48;100861.84;5079890;28;46159;-52
2021/05/26 02:50:28;;;;;;;;;10.00;7.25;;;;;11.06;81.36;100860.00;5080095;27;45444;-54
2021/05/26 02:52:54;;;;;;;;;5.00;5.00;;;;;11.09;79.46;100869.63;5079668;27;45168;-55
2021/05/26 02:55:22;;;;;;;;;6.25;5.25;;;;;10.99;79.37;100875.03;5083624;27;45214;-49
2021/05/26 02:57:48;;;;;;;;;5.00;5.00;;;;;11.04;86.88;100860.03;5083354;27;47176;-50
2021/05/26 03:00:15;;;;;;;;;6.00;4.50;;;;;11.02;87.96;100871.47;5083632;27;45299;-50
2021/05/26 03:02:40;;;;;;;;;9.25;5.75;;;;;10.99;88.09;100843.47;5083526;28;45362;-51
2021/05/26 03:05:08;;;;;;;;;5.75;5.75;;;;;10.98;86.16;100860.13;5083540;27;45303;-50
2021/05/26 03:07:34;;;;;;;;;5.75;5.00;;;;;11.01;80.48;100857.44;5083052;27;46280;-53
2021/05/26 03:09:59;;;;;;;;;5.75;5.00;;;;;11.01;79.61;100852.19;5083413;27;45219;-50
2021/05/26 03:12:24;;;;;;;;;7.75;5.50;;;;;11.06;79.24;100852.97;5082164;28;45286;-51
2021/05/26 03:14:50;;;;;;;;;7.00;5.00;;;;;11.10;79.14;100851.19;5083512;27;45420;-49
2021/05/26 03:17:15;;;;;;;;;5.00;4.25;;;;;11.16;78.69;100852.88;5083116;27;46326;-49
2021/05/26 03:19:40;;;;;;;;;5.75;4.00;;;;;11.15;78.66;100859.00;5083274;27;45452;-50
2021/05/26 03:22:06;;;;;;;;;5.50;4.00;;;;;11.11;79.55;100850.28;5083105;27;45230;-54
2021/05/26 03:24:31;;;;;;;;;6.75;6.75;;;;;11.14;79.37;100855.50;5083458;27;45231;-50
2021/05/26 03:26:57;;;;;;;;;6.00;4.25;;;;;11.09;80.27;100838.91;5082881;27;45322;-50
2021/05/26 03:29:22;;;;;;;;;5.00;4.00;;;;;11.04;82.77;100836.38;5083109;27;45230;-51
2021/05/26 03:31:47;;;;;;;;;7.75;7.00;;;;;11.01;85.39;100851.31;5098703;27;45274;-50
2021/05/26 03:34:13;;;;;;;;;8.25;6.00;;;;;11.00;84.15;100839.91;5083103;28;45481;-50
2021/05/26 03:36:39;;;;;;;;;5.75;5.75;;;;;10.94;82.15;100832.13;5081371;28;47526;-50
2021/05/26 03:39:07;;;;;;;;;4.25;4.25;;;;;10.99;81.28;100843.47;5083131;27;45355;-50
2021/05/26 03:41:32;;;;;;;;;8.25;5.75;;;;;11.04;81.49;100851.25;5082764;27;45491;-51
2021/05/26 03:43:57;;;;;;;;;6.25;5.00;;;;;11.05;80.81;100835.47;5083072;27;45430;-49
2021/05/26 03:46:24;;;;;;;;;4.25;3.25;;;;;11.04;80.34;100824.97;5082715;27;46190;-49
2021/05/26 03:48:50;;;;;;;;;3.50;3.50;;;;;11.12;82.30;100838.00;5082915;27;45235;-51
2021/05/26 03:51:15;;;;;;;;;3.00;3.00;;;;;11.13;82.15;100810.81;5082449;27;45484;-48
2021/05/26 03:53:41;;;;;;;;;5.00;5.00;;;;;11.14;81.18;100825.72;5090979;27;45261;-49
2021/05/26 03:56:06;;;;;;;;;5.00;4.75;;;;;11.18;82.71;100816.88;5078359;28;46130;-49
2021/05/26 03:58:32;;;;;;;;;2.25;2.25;;;;;11.11;82.12;100817.88;5082894;27;45159;-52
2021/05/26 04:00:57;;;;;;;;;5.25;5.25;;;;;11.10;81.05;100834.53;5082644;28;45479;-50
2021/05/26 04:03:23;;;;;;;;;5.25;5.25;;;;;11.15;80.63;100820.41;5082786;27;45236;-50
2021/05/26 04:05:48;;;;;;;;;4.25;4.25;;;;;11.24;80.78;100839.59;5081636;27;45406;-54
2021/05/26 04:08:14;;;;;;;;;4.25;3.50;;;;;11.25;82.50;100839.56;5082452;27;45371;-49
2021/05/26 04:10:39;;;;;;;;;4.00;4.00;;;;;11.23;85.01;100833.44;5082464;27;45355;-49
2021/05/26 04:13:05;;;;;;;;;6.25;4.50;;;;;11.22;86.46;100823.84;5098109;27;45920;-49
2021/05/26 04:15:30;;;;;;;;;6.75;6.75;;;;;11.20;86.27;100822.97;5081089;28;46149;-49
2021/05/26 04:18:03;;;;;;;;;3.75;3.75;;;;;11.20;85.16;100825.63;5082318;27;45294;-50
2021/05/26 04:20:28;;;;;;;;;4.00;4.00;;;;;11.23;84.54;100830.81;5082173;27;45452;-50
2021/05/26 04:22:53;;;;;;;;;5.25;3.00;;;;;11.17;83.79;100812.50;5082130;27;45193;-52
2021/05/26 04:25:19;;;;;;;;;6.25;5.75;;;;;11.20;81.85;100817.72;5082160;27;45921;-49
2021/05/26 04:27:46;;;;;;;;;4.50;3.25;;;;;11.27;81.57;100834.28;5082355;27;45401;-51
2021/05/26 04:30:12;;;;;;;;;3.00;3.00;;;;;11.28;81.21;100823.75;5082241;27;46068;-52
2021/05/26 04:32:37;;;;;;;;;4.00;3.50;;;;;11.37;80.45;100838.50;5081847;27;45318;-50
2021/05/26 04:35:03;;;;;;;;;6.50;4.00;;;;;11.47;80.40;100823.44;5081809;27;45915;-52
2021/05/26 04:37:28;;;;;;;;;2.00;1.25;;;;;11.52;79.94;100826.84;5081951;27;45382;-49
2021/05/26 04:39:54;;;;;;;;;5.50;3.50;;;;;11.58;79.69;100821.47;5082137;27;45901;-50
2021/05/26 04:42:19;;;;;;;;;6.50;3.75;;;;;11.62;79.23;100820.56;5081858;27;45164;-50
2021/05/26 04:44:44;;;;;;;;;3.25;3.25;;;;;11.73;78.91;100820.34;5081891;27;45303;-50
2021/05/26 04:47:10;;;;;;;;;5.00;4.00;;;;;11.75;78.87;100829.09;5081956;27;45285;-50
2021/05/26 04:49:35;;;;;;;;;3.00;3.00;;;;;11.81;78.78;100828.09;5097698;27;45222;-51
2021/05/26 04:52:00;;;;;;;;;4.00;4.00;;;;;11.85;78.46;100821.91;5081622;27;45355;-49
2021/05/26 04:54:26;;;;;;;;;3.50;2.00;;;;;11.97;78.12;100811.16;5081498;27;45398;-49
2021/05/26 04:56:51;;;;;;;;;3.75;2.50;;;;;12.04;77.74;100822.47;5081715;27;45235;-52
2021/05/26 04:59:17;;;;;;;;;3.75;3.00;;;;;12.03;77.15;100818.94;5081932;27;45222;-50
2021/05/26 05:01:42;;;;;;;;;3.25;2.00;;;;;12.06;77.62;100819.78;5081691;27;45689;-48
2021/05/26 05:04:07;;;;;;;;;2.00;2.00;;;;;12.10;77.45;100821.47;5081607;27;46166;-49
2021/05/26 05:06:33;;;;;;;;;2.00;2.00;;;;;12.18;77.22;100824.84;5081414;27;45294;-49
2021/05/26 05:08:58;;;;;;;;;2.25;2.25;;;;;12.18;77.18;100809.88;5081750;27;45232;-49
2021/05/26 05:11:24;;;;;;;;;2.00;2.00;;;;;12.18;76.94;100824.84;5081566;27;45247;-52
2021/05/26 05:13:51;;;;;;;;;1.50;1.50;;;;;12.22;76.69;100829.13;5081216;27;45469;-49
2021/05/26 05:16:16;;;;;;;;;1.00;1.00;;;;;12.25;76.29;100831.72;5081479;27;45388;-52
2021/05/26 05:18:41;;;;;;;;;2.00;2.00;;;;;12.32;76.42;100833.31;5081318;27;45260;-51
2021/05/26 05:21:07;;;;;;;;;3.00;2.00;;;;;12.32;76.26;100835.94;5081187;27;45321;-48
2021/05/26 05:23:34;;;;;;;;;1.25;1.25;;;;;12.34;75.97;100834.16;5081311;27;45540;-51
2021/05/26 05:26:00;;;;;;;;;1.50;1.50;;;;;12.26;75.73;100837.84;5081415;27;45302;-49
2021/05/26 05:28:25;;;;;;;;;1.25;1.25;;;;;12.29;75.34;100830.75;5081079;27;45500;-49
2021/05/26 05:30:50;;;;;;;;;1.00;1.00;;;;;12.32;75.64;100841.22;5081181;27;45222;-48
2021/05/26 05:33:16;;;;;;;;;4.50;2.50;;;;;12.27;74.66;100869.44;5080997;27;46073;-47
2021/05/26 05:35:41;;;;;;;;;0.00;0.00;;;;;12.36;74.46;100855.22;5081215;27;45327;-46
2021/05/26 05:38:06;;;;;;;;;2.00;0.25;;;;;12.37;73.25;100864.00;5081006;27;45250;-49
2021/05/26 05:40:32;;;;;;;;;1.00;0.00;;;;;12.39;72.87;100870.97;5081157;27;45340;-49
2021/05/26 05:42:57;;;;;;;;;0.00;0.00;;;;;12.36;71.64;100873.66;5080931;27;46055;-48
2021/05/26 05:45:22;;;;;;;;;0.00;0.00;;;;;12.45;71.85;100888.41;5080066;28;45289;-50
2021/05/26 05:47:48;;;;;;;;;0.00;0.00;;;;;12.47;70.65;100884.84;5081140;27;45417;-49
2021/05/26 05:50:17;;;;;;;;;0.00;0.00;;;;;12.42;71.09;100897.25;5081236;27;45330;-49
2021/05/26 05:52:43;;;;;;;;;0.50;0.00;;;;;12.56;71.16;100893.50;5080519;27;46451;-48
2021/05/26 05:55:10;;;;;;;;;0.00;0.00;;;;;12.63;70.10;100905.66;5080663;27;45398;-49
2021/05/26 05:57:38;;;;;;;;;0.00;0.00;;;;;12.67;69.96;100899.41;5080749;27;45307;-51
2021/05/26 06:00:06;;;;;;;;;0.75;0.75;;;;;12.63;69.89;100901.25;5080864;27;45426;-49
2021/05/26 06:02:31;;;;;;;;;4.75;1.75;;;;;12.60;69.50;100911.88;5080435;27;45365;-51
2021/05/26 06:04:57;;;;;;;;;0.00;0.00;;;;;12.67;69.63;100913.47;5080778;27;45234;-52
2021/05/26 06:07:22;;;;;;;;;0.00;0.00;;;;;12.64;69.33;100918.81;5080740;27;45240;-52
2021/05/26 06:09:48;;;;;;;;;0.00;0.00;;;;;12.55;68.96;100908.41;5096543;27;45332;-51
2021/05/26 06:12:13;;;;;;;;;1.00;1.00;;;;;12.71;69.00;100932.72;5080329;27;46622;-48
2021/05/26 06:14:38;;;;;;;;;3.00;1.00;;;;;12.80;68.66;100926.41;5080685;27;45437;-47
2021/05/26 06:17:03;;;;;;;;;0.00;0.00;;;;;12.84;68.41;100928.94;5080686;27;45370;-49
2021/05/26 06:19:29;;;;;;;;;0.00;0.00;;;;;12.77;68.50;100924.69;5080633;27;45302;-48
2021/05/26 06:21:54;;;;;;;;;0.75;0.75;;;;;12.87;68.48;100935.94;5078816;28;48253;-49
2021/05/26 06:24:19;;;;;;;;;1.00;1.00;;;;;12.79;68.51;100928.19;5080406;27;45315;-50
2021/05/26 06:26:45;;;;;;;;;0.00;0.00;;;;;12.90;68.75;100935.84;5079238;28;45465;-49
2021/05/26 06:29:10;;;;;;;;;2.00;2.00;;;;;13.05;68.08;100947.84;5079809;27;45635;-49
2021/05/26 06:31:35;;;;;;;;;0.00;0.00;;;;;13.10;67.07;100951.25;5080211;27;46260;-49
2021/05/26 06:34:01;;;;;;;;;2.50;0.75;;;;;13.08;67.15;100961.00;5080236;27;45257;-48
2021/05/26 06:36:32;;;;;;;;;0.00;0.00;;;;;13.05;67.36;100954.91;5080413;27;45225;-48
2021/05/26 06:38:58;;;;;;;;;2.00;0.75;;;;;13.07;67.03;100948.69;5080119;27;45321;-49
2021/05/26 06:41:23;;;;;;;;;1.00;0.50;;;;;13.02;67.48;100955.84;5080177;27;45377;-50
2021/05/26 06:43:48;;;;;;;;;0.75;0.75;;;;;13.01;67.48;100969.94;5078807;28;45348;-48
2021/05/26 06:46:14;;;;;;;;;0.00;0.00;;;;;13.17;67.80;100970.50;5080447;27;45454;-49
2021/05/26 06:48:39;;;;;;;;;0.75;0.75;;;;;13.27;67.16;100973.78;5080232;27;45503;-47
2021/05/26 06:51:04;;;;;;;;;0.00;0.00;;;;;13.13;67.06;100982.88;5079729;27;45209;-48
2021/05/26 06:53:30;;;;;;;;;0.00;0.00;;;;;13.03;67.12;100975.16;5080028;27;45275;-49
2021/05/26 06:55:56;;;;;;;;;1.00;1.00;;;;;13.11;67.24;100995.22;5078907;28;45375;-49
2021/05/26 06:58:21;;;;;;;;;1.00;1.00;;;;;13.35;67.12;101003.53;5079962;28;45212;-47
2021/05/26 07:00:46;;;;;;;;;1.00;1.00;;;;;13.51;66.17;101003.22;5079906;28;46182;-48
2021/05/26 07:03:12;;;;;;;;;0.75;0.75;;;;;13.58;65.90;101013.59;5079976;27;45252;-47
2021/05/26 07:05:38;;;;;;;;;1.00;0.00;;;;;13.60;65.21;101017.09;5095630;27;45218;-48
2021/05/26 07:08:03;;;;;;;;;0.75;0.75;;;;;13.62;65.18;101020.56;5079830;28;45204;-48
2021/05/26 07:10:29;;;;;;;;;1.00;0.00;;;;;13.71;64.66;101016.84;5079965;27;45322;-48
2021/05/26 07:12:54;;;;;;;;;1.00;1.00;;;;;13.74;64.31;101018.56;5079331;27;45379;-49
2021/05/26 07:15:20;;;;;;;;;1.75;1.00;;;;;13.92;64.44;101018.13;5079924;27;45475;-51
2021/05/26 07:17:45;;;;;;;;;0.00;0.00;;;;;14.17;64.22;101024.59;5079554;27;45294;-48
2021/05/26 07:20:12;;;;;;;;;0.00;0.00;;;;;14.28;62.36;101020.75;5079438;28;46053;-50
2021/05/26 07:22:38;;;;;;;;;0.00;0.00;;;;;14.28;62.27;101031.34;5079289;27;45342;-52
2021/05/26 07:25:03;;;;;;;;;0.00;0.00;;;;;14.36;61.68;101027.63;5078553;28;45376;-48
2021/05/26 07:27:29;;;;;;;;;1.00;0.00;;;;;14.59;61.85;101030.56;5079318;27;45476;-50
2021/05/26 07:29:54;;;;;;;;;0.00;0.00;;;;;14.86;61.27;101035.19;5074943;28;47343;-50
2021/05/26 07:32:20;;;;;;;;;0.00;0.00;;;;;14.98;60.50;101026.91;5078149;28;45208;-48
2021/05/26 07:34:45;;;;;;;;;0.00;0.00;;;;;15.00;59.75;101042.72;5079829;27;45172;-48
2021/05/26 07:37:11;;;;;;;;;0.00;0.00;;;;;15.08;59.96;101038.06;5079172;27;45140;-51
2021/05/26 07:39:36;;;;;;;;;0.00;0.00;;;;;14.97;59.33;101045.44;5080272;28;46102;-49
2021/05/26 07:42:06;;;;;;;;;0.00;0.00;;;;;14.78;59.83;101046.84;5082690;28;45215;-51
2021/05/26 07:44:33;;;;;;;;;0.00;0.00;;;;;14.67;59.38;101048.91;5083304;27;45301;-53
2021/05/26 07:46:59;;;;;;;;;0.00;0.00;;;;;14.69;59.43;101056.78;5082635;27;45516;-49
2021/05/26 07:49:24;;;;;;;;;0.00;0.00;;;;;14.80;59.54;101057.38;5082821;27;45408;-51
2021/05/26 07:51:52;;;;;;;;;0.50;0.00;;;;;14.67;57.97;101054.19;5082114;27;45300;-49
2021/05/26 07:54:18;;;;;;;;;0.50;0.50;;;;;14.51;58.28;101048.38;5082921;27;45278;-48
2021/05/26 07:56:44;;;;;;;;;0.00;0.00;;;;;14.40;58.16;101063.66;5082691;27;45402;-48
2021/05/26 07:59:09;;;;;;;;;1.00;1.00;;;;;14.42;58.87;101067.13;5082665;27;45425;-52
2021/05/26 08:01:35;;;;;;;;;0.00;0.00;;;;;14.47;58.74;101052.03;5082608;28;45305;-53
2021/05/26 08:04:01;;;;;;;;;0.00;0.00;;;;;14.46;57.50;101069.69;5082818;27;45343;-50
2021/05/26 08:06:26;;;;;;;;;1.00;0.00;;;;;14.43;57.98;101068.88;5082246;27;45303;-48
2021/05/26 08:08:52;;;;;;;;;1.00;1.00;;;;;14.49;58.06;101076.66;5082745;27;45384;-51
2021/05/26 08:11:17;;;;;;;;;0.75;0.00;;;;;14.63;56.70;101078.94;5082475;27;45290;-51
2021/05/26 08:13:42;;;;;;;;;1.00;0.00;;;;;14.67;56.76;101079.78;5082496;27;45275;-48
2021/05/26 08:16:09;;;;;;;;;0.00;0.00;;;;;14.75;57.37;101083.06;5082129;27;45287;-50
2021/05/26 08:18:35;;;;;;;;;0.00;0.00;;;;;14.94;56.24;101086.09;5082310;27;45933;-49
2021/05/26 08:21:00;;;;;;;;;1.00;0.50;;;;;14.97;56.37;101090.44;5081928;27;45255;-48
2021/05/26 08:23:26;;;;;;;;;0.00;0.00;;;;;15.10;56.32;101091.84;5082642;27;45272;-48
2021/05/26 08:25:51;;;;;;;;;0.00;0.00;;;;;15.51;56.74;101087.16;5097817;27;45510;-50
2021/05/26 08:28:17;;;;;;;;;1.25;0.00;;;;;15.83;54.61;101088.00;5082176;27;45371;-50
2021/05/26 08:30:44;;;;;;;;;0.00;0.00;;;;;15.89;54.63;101084.31;5097722;27;45401;-49
2021/05/26 08:33:10;;;;;;;;;2.00;0.00;;;;;16.00;53.46;101089.25;5082344;27;45351;-51
2021/05/26 08:35:35;;;;;;;;;1.00;0.00;;;;;15.85;53.55;101096.78;5081924;28;45374;-50
2021/05/26 08:38:02;;;;;;;;;0.25;0.25;;;;;15.73;53.47;101097.13;5081807;27;46246;-49
2021/05/26 08:40:28;;;;;;;;;0.00;0.00;;;;;15.87;54.32;101094.97;5080661;27;46251;-50
2021/05/26 08:42:54;;;;;;;;;0.25;0.25;;;;;16.07;54.35;101093.47;5082004;27;45492;-49
2021/05/26 08:45:20;;;;;;;;;2.00;1.00;;;;;16.26;53.85;101099.03;5081854;27;45287;-49
2021/05/26 08:47:46;;;;;;;;;1.00;1.00;;;;;16.27;53.16;101111.38;5081839;28;45250;-49
2021/05/26 08:50:13;;;;;;;;;0.75;0.75;;;;;16.25;52.16;101102.59;5081414;28;45286;-50
2021/05/26 08:52:41;;;;;;;;;0.25;0.25;;;;;16.40;52.90;101114.50;5080674;27;45233;-52
2021/05/26 08:55:10;;;;;;;;;0.00;0.00;;;;;16.43;51.74;101114.41;5081585;27;45312;-49
2021/05/26 08:57:35;;;;;;;;;0.00;0.00;;;;;16.27;51.21;101107.88;5081347;27;46322;-47
2021/05/26 09:00:01;;;;;;;;;2.00;1.00;;;;;16.10;50.68;101109.28;5081786;27;45302;-49
2021/05/26 09:02:26;;;;;;;;;2.00;1.00;;;;;16.29;50.95;101108.69;5097408;27;45533;-48
2021/05/26 09:04:52;;;;;;;;;1.75;1.00;;;;;16.51;50.57;101100.91;5081810;27;45481;-48
2021/05/26 09:07:19;;;;;;;;;1.00;1.00;;;;;16.68;51.13;101097.69;5081408;27;45701;-52
2021/05/26 09:09:50;;;;;;;;;2.00;1.00;;;;;16.84;50.38;101104.19;5081759;27;45292;-51
2021/05/26 09:12:41;;;;;;;;;4.00;1.00;;;;;17.01;50.15;101098.31;5096931;27;45294;-51
2021/05/26 09:15:14;;;;;;;;;2.00;2.00;;;;;17.03;48.88;101108.88;5081412;27;45453;-48
2021/05/26 09:17:42;;;;;;;;;3.00;1.25;;;;;17.11;48.41;101111.28;5081052;27;46005;-48
2021/05/26 09:20:12;;;;;;;;;1.00;1.00;;;;;17.09;47.92;101106.00;5081035;27;45325;-48
2021/05/26 09:22:40;;;;;;;;;1.25;0.25;;;;;17.01;48.76;101105.44;5081036;27;45366;-48
2021/05/26 09:25:09;;;;;;;;;2.00;2.00;;;;;17.11;47.90;101103.31;5081133;27;45337;-47
2021/05/26 09:27:35;;;;;;;;;3.00;2.00;;;;;16.87;47.72;101111.19;5080952;28;46462;-52
2021/05/26 09:30:00;;;;;;;;;0.50;0.50;;;;;16.58;48.75;101110.41;5081335;27;45233;-49
2021/05/26 09:32:27;;;;;;;;;1.25;1.25;;;;;16.38;49.26;101116.34;5081228;27;45156;-50
2021/05/26 09:34:57;;;;;;;;;4.25;2.00;;;;;16.17;49.86;101115.25;5081088;27;45503;-51
2021/05/26 09:37:28;;;;;;;;;0.75;0.75;;;;;16.18;49.78;101124.94;5080836;28;45417;-47
2021/05/26 09:40:03;;;;;;;;;1.00;1.00;;;;;16.45;50.05;101119.66;5080977;27;45350;-49
2021/05/26 09:42:34;;;;;;;;;3.00;2.00;;;;;16.79;49.26;101122.06;5081026;28;45302;-50
2021/05/26 09:45:20;;;;;;;;;2.00;2.00;;;;;17.12;48.52;101116.53;5080807;27;45552;-52
2021/05/26 09:47:51;;;;;;;;;0.00;0.00;;;;;17.47;46.63;101125.00;5096767;27;45948;-51
2021/05/26 09:50:30;;;;;;;;;3.25;3.00;;;;;17.30;45.82;101127.41;5080891;27;45392;-52
2021/05/26 09:53:08;;;;;;;;;1.75;1.75;;;;;17.26;47.16;101131.09;5080546;27;45501;-50
2021/05/26 09:55:37;;;;;;;;;2.00;2.00;;;;;17.12;47.15;101132.47;5076080;28;45400;-51
2021/05/26 09:58:04;;;;;;;;;1.50;1.50;;;;;16.96;46.80;101129.47;5073556;28;47460;-52
2021/05/26 10:00:31;;;;;;;;;4.75;2.75;;;;;17.02;47.41;101133.72;5067298;28;45290;-49
2021/05/26 10:02:57;;;;;;;;;1.00;1.00;;;;;17.01;47.59;101150.56;5076697;28;45236;-50
2021/05/26 10:05:25;;;;;;;;;1.00;0.50;;;;;17.05;47.62;101149.53;5079358;28;45482;-51
2021/05/26 10:07:54;;;;;;;;;2.00;2.00;;;;;17.30;48.07;101151.31;5080251;27;45470;-53
2021/05/26 10:10:21;;;;;;;;;2.00;2.00;;;;;17.74;47.60;101154.13;5080760;27;45507;-50
2021/05/26 10:12:55;;;;;;;;;3.00;3.00;;;;;18.16;47.27;101150.78;5080206;27;45333;-51
2021/05/26 10:15:24;;;;;;;;;2.50;2.50;;;;;18.36;46.51;101146.44;5080448;27;45487;-53
2021/05/26 10:17:54;;;;;;;;;3.25;1.50;;;;;18.95;45.87;101146.72;5080144;27;45359;-50
2021/05/26 10:20:23;;;;;;;;;2.00;2.00;;;;;19.23;43.93;101146.41;5095873;27;45546;-49
2021/05/26 10:22:51;;;;;;;;;3.50;3.00;;;;;19.17;43.04;101150.19;5096020;27;45430;-52
2021/05/26 10:25:18;;;;;;;;;0.00;0.00;;;;;18.77;43.29;101146.53;5080267;27;45375;-52
2021/05/26 10:27:49;;;;;;;;;1.75;1.75;;;;;18.40;44.07;101145.41;5080120;27;45321;-51
2021/05/26 10:30:20;;;;;;;;;2.00;0.75;;;;;18.63;44.36;101144.44;5095740;27;45327;-51
2021/05/26 10:32:50;;;;;;;;;3.25;2.25;;;;;18.98;43.49;101154.56;5080186;27;45217;-52
2021/05/26 10:35:16;;;;;;;;;4.75;1.75;;;;;18.86;43.57;101158.59;5078827;28;45417;-50
2021/05/26 10:37:43;;;;;;;;;1.75;1.75;;;;;19.14;43.90;101162.75;5078454;28;45728;-48
2021/05/26 10:40:30;;;;;;;;;1.75;1.75;;;;;19.79;43.68;101167.88;5080076;28;45282;-51
2021/05/26 10:42:56;;;;;;;;;2.00;1.00;;;;;20.05;41.43;101153.34;5080144;27;45295;-52
2021/05/26 10:45:35;;;;;;;;;2.50;1.00;;;;;23.32;40.59;101154.56;5080084;27;45565;-49
2021/05/26 10:48:00;;;;;;;;;3.00;2.00;;;;;25.03;36.55;101160.63;5078606;28;45395;-47
2021/05/26 10:50:44;;;;;;;;;3.00;3.00;;;;;25.30;34.67;101164.06;5095619;27;45420;-50
2021/05/26 10:53:10;;;;;;;;;1.50;1.50;;;;;25.12;34.59;101154.63;5078570;28;45455;-53
2021/05/26 10:55:42;;;;;;;;;2.50;1.75;;;;;24.22;34.76;101165.91;5079866;27;45468;-51
2021/05/26 10:58:12;;;;;;;;;1.75;1.75;;;;;23.62;34.27;101165.22;5079766;27;46345;-50
2021/05/26 11:01:03;;;;;;;;;4.00;3.00;;;;;23.02;35.74;101172.41;5079944;27;45412;-51
2021/05/26 11:03:30;;;;;;;;;4.25;3.25;;;;;;;;5076971;27;45220;-51
2021/05/26 11:05:57;;;;;;;;;3.50;3.00;;;;;21.62;36.52;101169.59;5079618;27;45390;-49
2021/05/26 11:08:35;;;;;;;;;3.25;3.25;;;;;20.94;36.58;101169.50;5079713;27;47120;-51
2021/05/26 11:11:26;;;;;;;;;2.00;2.00;;;;;20.58;37.91;101161.50;5079639;27;45295;-50
2021/05/26 11:14:04;;;;;;;;;3.00;3.00;;;;;21.85;37.59;101165.69;5080642;28;45280;-50
2021/05/26 11:16:44;;;;;;;;;2.75;2.75;;;;;23.24;35.64;101165.75;5083123;27;45252;-49
2021/05/26 11:19:13;;;;;;;;;3.00;3.00;;;;;23.85;34.32;101165.59;5081453;28;47231;-51
2021/05/26 11:22:01;;;;;;;;;3.00;3.00;;;;;24.08;32.85;101166.81;5082781;27;45378;-50
2021/05/26 11:24:38;;;;;;;;;3.50;3.50;;;;;24.04;33.22;101162.63;5083302;27;45435;-51
2021/05/26 11:27:26;;;;;;;;;4.50;4.50;;;;;23.93;33.43;101159.75;5082903;28;45231;-53
2021/05/26 11:29:55;;;;;;;;;4.00;4.00;;;;;23.90;33.28;101158.09;5082874;27;45383;-47